Detall de PIREP

Printer-friendly versionPDF version

[2015/03/09 10:29:00]
Flight IATA:CT2112
Pilot Number:041
Company ICAO:CAT
Aircraft Type:B463/A
PAX:90
Aircraft Registration:PAX
Departing Airport: LEVC
Destination Airport: LEZL
Alternate Airport:LEMG
Online: VATSIM
Route:ASTRO B28 VIBAS
Flight Level:FL270
No Slew and time accel
No pause
Crash detect
Detect pilot in Cockpit between each 30 and 45 minutes
10:29 Zero fuel Weight: 79466 Lbs, Fuel Weight: 20754 Lbs
10:29 VATSIM:LEVC 091000Z 00000KT CAVOK 14/07 Q1025 NOSIG
10:29 VATSIM:LEZL 091000Z 00000KT CAVOK 16/06 Q1025 NOSIG
10:29 VOICE CATALONIAN
10:33 Parking Brakes off
10:45 Take-off
10:45 Take off Weight: 99764 Lbs
10:45 Wind: 307º @ 002 Knots Heading: 295º
10:45 POS N39º 29´ 25´´ W000º 29´ 05´´
10:45 Gear Up: 187 Knots
10:45 Flaps:1 at 187 Knots
10:45 Flaps:0 at 194 Knots
10:56 TOC
10:56 Fuel Weight: 18591 Lb
11:00 Wind:256º@037 Knots Heading: 234º Ground Speed: 341 Knots Altitude 27352 ft
11:15 Wind:208º@018 Knots Heading: 225º Ground Speed: 359 Knots Altitude 27211 ft
11:16 TOD
11:16 Fuel Weight: 16976 Lb
11:30 Wind:293º@003 Knots Heading: 270º Ground Speed: 275 Knots Altitude 5101 ft
11:41 Flaps:1 at 216 Knots
11:44 Flaps:2 at 169 Knots
11:44 Flaps:4 at 166 Knots
11:44 Gear Down: 167 Knots
11:45 Wind:058º@002 Knots Heading: 269º Ground Speed: 153 Knots Altitude 1026 ft
11:46 TouchDown:Rate -108 ft/min Speed: 121 Knots
11:46 Flaps:3 at 104 Knots
11:46 Flaps:0 at 99 Knots
11:46 VATSIM:LEZL 091130Z 29003KT 240V360 CAVOK 18/06 Q1024 NOSIG
11:46 Land
11:46 Wind:058º@002 Knots
11:46 Heading: 270º
11:46 Flight Duration: 01:01
11:46 Landing Weight: 94917 Lbs
11:46 POS N37º 25´ 04´´ W005º 53´ 24´´
11:49 Parking brakes on
11:49 Block to Block Duration: 01:16
11:49 Final Fuel: 15308 Lbls
11:49 Spent Fuel: 5445 Lbls
11:49 Flight Length: 307 NM
11:49 TOD Land Length: 136 NM

Exportar CSV

Powered by Drupal - Modified by Danger4k